createdAt,value
2023-03-17T00:01:07.422Z,25.68
2023-03-17T00:03:45.796Z,25.71
2023-03-17T00:06:20.252Z,25.66
2023-03-17T00:08:50.905Z,25.68
2023-03-17T00:11:23.523Z,25.66
2023-03-17T00:13:56.538Z,25.65
2023-03-17T00:16:33.958Z,25.65
2023-03-17T00:19:05.508Z,25.62
2023-03-17T00:21:37.910Z,25.59
2023-03-17T00:24:15.022Z,25.58
2023-03-17T00:26:46.057Z,25.58
2023-03-17T00:29:17.678Z,25.61
2023-03-17T00:31:49.527Z,25.59
2023-03-17T00:34:21.120Z,25.59
2023-03-17T00:36:54.031Z,25.58
2023-03-17T00:39:28.158Z,25.62
2023-03-17T00:41:59.103Z,25.59
2023-03-17T00:44:30.505Z,25.59
2023-03-17T00:47:02.703Z,25.57
2023-03-17T00:49:34.192Z,25.55
2023-03-17T00:52:04.634Z,25.53
2023-03-17T00:54:35.276Z,25.55
2023-03-17T00:57:05.592Z,25.51
2023-03-17T00:59:43.708Z,25.42
2023-03-17T01:02:15.311Z,25.43
2023-03-17T01:05:12.321Z,25.48
2023-03-17T01:07:55.141Z,25.49
2023-03-17T01:10:29.490Z,25.48
2023-03-17T01:13:07.679Z,25.49
2023-03-17T01:15:47.704Z,25.51
2023-03-17T01:18:20.977Z,25.43
2023-03-17T01:20:53.163Z,25.43
2023-03-17T01:23:24.838Z,25.43
2023-03-17T01:25:57.256Z,25.42
2023-03-17T01:28:28.933Z,25.41
2023-03-17T01:30:59.502Z,25.38
2023-03-17T01:33:30.576Z,25.38
2023-03-17T01:36:07.397Z,25.39
2023-03-17T01:39:05.025Z,25.37
2023-03-17T01:41:42.323Z,25.38
2023-03-17T01:44:28.323Z,25.38
2023-03-17T01:47:01.039Z,25.35
2023-03-17T01:49:40.410Z,25.32
2023-03-17T01:52:23.686Z,25.30
2023-03-17T01:54:58.845Z,25.27
2023-03-17T01:57:43.700Z,25.24
2023-03-17T02:00:23.967Z,25.21
2023-03-17T02:02:59.262Z,25.18
2023-03-17T02:05:33.215Z,25.14
2023-03-17T02:08:05.208Z,25.11
2023-03-17T02:10:36.953Z,25.10
2023-03-17T02:13:08.246Z,25.11
2023-03-17T02:15:46.179Z,25.06
2023-03-17T02:18:19.122Z,25.01
2023-03-17T02:20:49.234Z,24.94
2023-03-17T02:23:24.276Z,24.97
2023-03-17T02:25:55.914Z,24.94
2023-03-17T02:28:33.405Z,24.88
2023-03-17T02:31:07.030Z,24.86
2023-03-17T02:33:37.268Z,24.84
2023-03-17T02:36:11.021Z,24.86
2023-03-17T02:38:42.409Z,24.86
2023-03-17T02:41:13.994Z,24.80
2023-03-17T02:43:46.382Z,24.79
2023-03-17T02:46:18.921Z,24.74
2023-03-17T02:48:51.615Z,24.71
2023-03-17T02:51:22.029Z,24.70
2023-03-17T02:53:52.734Z,24.71
2023-03-17T02:56:23.931Z,24.69
2023-03-17T02:58:54.787Z,24.67
2023-03-17T03:01:28.579Z,24.70
2023-03-17T03:04:00.001Z,24.67
2023-03-17T03:06:31.013Z,24.66
2023-03-17T03:09:02.818Z,24.66
2023-03-17T03:11:33.864Z,24.67
2023-03-17T03:14:04.960Z,24.67
2023-03-17T03:16:37.723Z,24.63
2023-03-17T03:19:10.978Z,24.60
2023-03-17T03:21:44.116Z,24.57
2023-03-17T03:24:14.798Z,24.59
2023-03-17T03:26:45.978Z,24.57
2023-03-17T03:29:19.369Z,24.57
2023-03-17T03:31:50.805Z,24.57
2023-03-17T03:34:22.621Z,24.60
2023-03-17T03:36:53.556Z,24.59
2023-03-17T03:39:24.292Z,24.59
2023-03-17T03:41:59.586Z,24.60
2023-03-17T03:44:30.128Z,24.60
2023-03-17T03:47:00.370Z,24.59
2023-03-17T03:49:31.557Z,24.60
2023-03-17T03:52:01.917Z,24.55
2023-03-17T03:54:32.309Z,24.49
2023-03-17T03:57:03.495Z,24.50
2023-03-17T03:59:34.730Z,24.55
2023-03-17T04:02:05.196Z,24.55
2023-03-17T04:04:36.391Z,24.50
2023-03-17T04:07:07.606Z,24.46
2023-03-17T04:09:40.089Z,24.40
2023-03-17T04:12:14.303Z,24.40
2023-03-17T04:14:47.789Z,24.35
2023-03-17T04:17:18.309Z,24.33
2023-03-17T04:19:49.795Z,24.33
2023-03-17T04:22:24.418Z,24.26
2023-03-17T04:24:55.806Z,24.28
2023-03-17T04:27:27.421Z,24.28
2023-03-17T04:30:02.099Z,24.26
2023-03-17T04:32:34.187Z,24.26
2023-03-17T04:35:04.584Z,24.32
2023-03-17T04:37:34.806Z,24.33
2023-03-17T04:40:10.694Z,24.32
2023-03-17T04:42:45.125Z,24.29
2023-03-17T04:45:19.396Z,24.26
2023-03-17T04:47:50.353Z,24.25
2023-03-17T04:50:20.865Z,24.28
2023-03-17T04:52:52.030Z,24.28
2023-03-17T04:55:23.692Z,24.26
2023-03-17T04:57:55.547Z,24.28
2023-03-17T05:00:27.329Z,24.28
2023-03-17T05:03:01.112Z,24.28
2023-03-17T05:05:32.280Z,24.25
2023-03-17T05:08:03.427Z,24.25
2023-03-17T05:10:33.863Z,24.20
2023-03-17T05:13:06.277Z,24.20
2023-03-17T05:15:38.649Z,24.25
2023-03-17T05:20:38.462Z,24.33
2023-03-17T05:23:10.047Z,24.26
2023-03-17T05:25:41.950Z,24.23
2023-03-17T05:28:13.050Z,24.25
2023-03-17T05:30:46.568Z,24.19
2023-03-17T05:33:17.962Z,24.15
2023-03-17T05:35:49.541Z,24.13
2023-03-17T05:38:19.712Z,24.15
2023-03-17T05:40:53.038Z,24.09
2023-03-17T05:43:24.675Z,24.09
2023-03-17T05:45:56.399Z,24.08
2023-03-17T05:48:35.286Z,24.09
2023-03-17T05:51:09.534Z,24.06
2023-03-17T05:53:41.308Z,24.06
2023-03-17T05:56:12.957Z,24.04
2023-03-17T05:58:44.197Z,24.06
2023-03-17T06:01:16.948Z,24.05
2023-03-17T06:03:48.925Z,24.04
2023-03-17T06:06:23.356Z,24.02
2023-03-17T06:08:54.591Z,24.02
2023-03-17T06:11:25.593Z,24.01
2023-03-17T06:13:56.903Z,23.99
2023-03-17T06:16:28.416Z,23.99
2023-03-17T06:18:58.863Z,23.96
2023-03-17T06:21:30.032Z,23.98
2023-03-17T06:24:03.257Z,23.98
2023-03-17T06:26:33.487Z,23.98
2023-03-17T06:29:05.465Z,23.96
2023-03-17T06:31:37.350Z,23.96
2023-03-17T06:34:08.658Z,23.95
2023-03-17T06:36:41.378Z,23.96
2023-03-17T06:39:13.339Z,23.95
2023-03-17T06:41:44.732Z,23.92
2023-03-17T06:44:15.578Z,23.90
2023-03-17T06:46:46.584Z,23.88
2023-03-17T06:49:17.395Z,23.88
2023-03-17T06:51:48.679Z,23.88
2023-03-17T06:54:21.494Z,23.85
2023-03-17T06:56:52.314Z,23.88
2023-03-17T06:59:25.276Z,23.88
2023-03-17T07:01:56.212Z,23.88
2023-03-17T07:04:27.962Z,23.86
2023-03-17T07:06:59.979Z,23.89
2023-03-17T07:09:31.580Z,23.88
2023-03-17T07:12:07.065Z,23.82
2023-03-17T07:14:38.947Z,23.84
2023-03-17T07:17:10.460Z,23.82
2023-03-17T07:19:43.109Z,23.85
2023-03-17T07:22:15.740Z,23.81
2023-03-17T07:24:49.856Z,23.81
2023-03-17T07:27:23.260Z,23.76
2023-03-17T07:29:57.012Z,23.74
2023-03-17T07:32:28.611Z,23.72
2023-03-17T07:35:00.953Z,23.69
2023-03-17T07:37:31.258Z,23.71
2023-03-17T07:40:03.050Z,23.69
2023-03-17T07:42:34.432Z,23.69
2023-03-17T07:45:07.851Z,23.67
2023-03-17T07:47:38.578Z,23.68
2023-03-17T07:50:10.301Z,23.59
2023-03-17T07:52:41.440Z,23.59
2023-03-17T07:55:14.835Z,23.55
2023-03-17T07:57:45.694Z,23.57
2023-03-17T08:00:16.515Z,23.55
2023-03-17T08:02:59.617Z,23.57
2023-03-17T08:05:37.539Z,23.57
2023-03-17T08:08:08.045Z,23.55
2023-03-17T08:10:39.230Z,23.58
2023-03-17T08:13:09.726Z,23.58
2023-03-17T08:15:39.767Z,23.57
2023-03-17T08:18:10.385Z,23.53
2023-03-17T08:20:40.584Z,23.48
2023-03-17T08:23:10.836Z,23.50
2023-03-17T08:25:40.906Z,23.53
2023-03-17T08:28:11.796Z,23.48
2023-03-17T08:30:43.475Z,23.54
2023-03-17T08:33:15.257Z,23.57
2023-03-17T08:35:45.725Z,23.57
2023-03-17T08:38:18.855Z,23.51
2023-03-17T08:40:52.842Z,23.51
2023-03-17T08:43:23.489Z,23.53
2023-03-17T08:45:56.743Z,23.50
2023-03-17T08:48:28.259Z,23.54
2023-03-17T08:51:01.228Z,23.55
2023-03-17T08:53:33.186Z,23.57
2023-03-17T08:56:05.306Z,23.51
2023-03-17T08:58:38.982Z,23.51
2023-03-17T09:01:11.086Z,23.50
2023-03-17T09:03:43.536Z,23.47
2023-03-17T09:06:15.604Z,23.45
2023-03-17T09:08:49.601Z,23.43
2023-03-17T09:11:23.043Z,23.41
2023-03-17T09:13:55.194Z,23.44
2023-03-17T09:16:28.145Z,23.43
2023-03-17T09:18:59.922Z,23.43
2023-03-17T09:21:31.393Z,23.43
2023-03-17T09:24:02.857Z,23.43
2023-03-17T09:26:34.276Z,23.40
2023-03-17T09:29:10.213Z,23.44
2023-03-17T09:31:41.067Z,23.50
2023-03-17T09:34:13.381Z,23.50
2023-03-17T09:36:44.640Z,23.54
2023-03-17T09:39:16.128Z,23.53
2023-03-17T09:42:18.277Z,23.61
2023-03-17T09:45:05.305Z,23.57
2023-03-17T09:48:12.216Z,23.57
2023-03-17T09:51:12.472Z,23.61
2023-03-17T09:53:49.313Z,23.71
2023-03-17T09:56:23.309Z,23.67
2023-03-17T09:59:14.956Z,23.69
2023-03-17T10:01:46.036Z,23.75
2023-03-17T10:04:19.067Z,23.79
2023-03-17T10:06:52.219Z,23.88
2023-03-17T10:10:06.590Z,23.94
2023-03-17T10:13:11.568Z,24.02
2023-03-17T10:15:48.165Z,24.06
2023-03-17T10:18:50.300Z,24.15
2023-03-17T10:21:35.649Z,24.15
2023-03-17T10:24:07.276Z,24.18
2023-03-17T10:26:51.664Z,24.18
2023-03-17T10:29:26.603Z,24.22
2023-03-17T10:32:00.438Z,24.25
2023-03-17T10:34:38.465Z,24.25
2023-03-17T10:37:17.657Z,24.36
2023-03-17T10:39:55.174Z,24.41
2023-03-17T10:42:31.515Z,25.93
2023-03-17T10:45:27.469Z,28.20
2023-03-17T10:48:00.520Z,28.47
2023-03-17T10:50:34.915Z,28.64
2023-03-17T10:53:32.906Z,28.72
2023-03-17T10:56:11.796Z,28.48
2023-03-17T10:58:55.149Z,28.16
2023-03-17T11:01:36.857Z,27.93
2023-03-17T11:04:29.094Z,27.94
2023-03-17T11:07:04.471Z,27.92
2023-03-17T11:09:41.990Z,28.01
2023-03-17T11:12:30.912Z,27.97
2023-03-17T11:15:20.551Z,28.00
2023-03-17T11:18:02.629Z,27.93
2023-03-17T11:21:05.824Z,28.01
2023-03-17T11:24:09.419Z,28.07
2023-03-17T11:27:01.113Z,28.11
2023-03-17T11:29:58.348Z,28.36
2023-03-17T11:32:42.863Z,28.31
2023-03-17T11:35:21.663Z,28.39
2023-03-17T11:38:13.725Z,28.40
2023-03-17T11:41:08.040Z,28.50
2023-03-17T11:43:56.927Z,28.68
2023-03-17T11:46:39.394Z,28.92
2023-03-17T11:49:38.340Z,29.16
2023-03-17T11:52:28.747Z,29.25
2023-03-17T11:55:24.027Z,29.33
2023-03-17T11:58:21.140Z,29.43
2023-03-17T12:01:02.713Z,29.37
2023-03-17T12:03:55.093Z,29.42
2023-03-17T12:06:49.076Z,29.49
2023-03-17T12:09:34.804Z,29.57
2023-03-17T12:12:13.823Z,29.46
2023-03-17T12:14:52.860Z,29.32
2023-03-17T12:18:08.982Z,29.56
2023-03-17T12:21:23.006Z,29.81
2023-03-17T12:24:17.288Z,29.70
2023-03-17T12:27:26.070Z,29.56
2023-03-17T12:29:59.520Z,29.66
2023-03-17T12:32:56.939Z,29.97
2023-03-17T12:35:37.016Z,29.91
2023-03-17T12:38:38.897Z,29.98
2023-03-17T12:41:20.549Z,29.84
2023-03-17T12:44:10.607Z,29.98
2023-03-17T12:47:05.442Z,29.84
2023-03-17T12:50:08.386Z,30.23
2023-03-17T12:53:03.199Z,30.38
2023-03-17T12:55:44.562Z,30.29
2023-03-17T12:58:54.202Z,30.55
2023-03-17T13:01:47.041Z,30.54
2023-03-17T13:04:44.545Z,30.64
2023-03-17T13:07:26.880Z,30.68
2023-03-17T13:10:15.627Z,30.65
2023-03-17T13:13:08.422Z,30.47
2023-03-17T13:15:43.811Z,30.45
2023-03-17T13:21:25.210Z,30.38
2023-03-17T13:24:26.192Z,30.54
2023-03-17T13:27:06.910Z,30.61
2023-03-17T13:29:43.662Z,30.57
2023-03-17T13:32:38.957Z,30.68
2023-03-17T13:35:24.250Z,30.64
2023-03-17T13:38:19.978Z,30.47
2023-03-17T13:41:13.909Z,30.61
2023-03-17T13:44:02.116Z,30.59
2023-03-17T13:46:36.498Z,30.44
2023-03-17T13:49:20.873Z,30.31
2023-03-17T13:52:06.655Z,30.68
2023-03-17T13:54:45.078Z,30.65
2023-03-17T13:57:28.984Z,30.65
2023-03-17T14:00:06.151Z,30.49
2023-03-17T14:02:43.854Z,30.72
2023-03-17T14:05:33.642Z,30.85
2023-03-17T14:08:18.249Z,30.90
2023-03-17T14:11:04.159Z,31.08
2023-03-17T14:14:02.449Z,31.34
2023-03-17T14:17:15.748Z,31.27
2023-03-17T14:20:03.831Z,31.18
2023-03-17T14:22:35.257Z,31.00
2023-03-17T14:25:10.135Z,30.88
2023-03-17T14:27:44.516Z,30.92
2023-03-17T14:30:30.895Z,31.08
2023-03-17T14:33:20.853Z,30.98
2023-03-17T14:35:54.993Z,30.92
2023-03-17T14:38:42.713Z,30.86
2023-03-17T14:41:25.454Z,30.82
2023-03-17T14:44:01.538Z,30.81
2023-03-17T14:46:43.358Z,30.85
2023-03-17T14:49:25.337Z,30.99
2023-03-17T14:51:58.913Z,30.76
2023-03-17T14:54:37.350Z,30.86
2023-03-17T14:57:14.756Z,30.76
2023-03-17T15:00:03.768Z,30.92
2023-03-17T15:02:41.725Z,30.62
2023-03-17T15:05:31.449Z,30.81
2023-03-17T15:08:03.876Z,30.79
2023-03-17T15:10:43.937Z,30.69
2023-03-17T15:13:16.317Z,30.57
2023-03-17T15:15:49.180Z,30.51
2023-03-17T15:21:35.423Z,31.03
2023-03-17T15:24:27.873Z,30.90
2023-03-17T15:27:09.622Z,30.68
2023-03-17T15:29:46.406Z,30.76
2023-03-17T15:32:25.594Z,30.67
2023-03-17T15:35:04.196Z,30.41
2023-03-17T15:37:35.954Z,30.42
2023-03-17T15:40:08.013Z,30.44
2023-03-17T15:42:41.753Z,30.47
2023-03-17T15:45:20.224Z,30.48
2023-03-17T15:47:51.198Z,30.69
2023-03-17T15:50:34.430Z,30.78
2023-03-17T15:53:05.326Z,30.67
2023-03-17T15:55:39.857Z,30.48
2023-03-17T15:58:16.060Z,30.51
2023-03-17T16:00:59.488Z,30.31
2023-03-17T16:03:40.900Z,30.61
2023-03-17T16:06:22.577Z,30.76
2023-03-17T16:08:54.466Z,30.47
2023-03-17T16:11:30.805Z,30.35
2023-03-17T16:14:01.844Z,30.35
2023-03-17T16:16:41.173Z,30.10
2023-03-17T16:19:23.104Z,30.14
2023-03-17T16:21:55.114Z,30.38
2023-03-17T16:24:28.929Z,30.69
2023-03-17T16:26:59.361Z,30.74
2023-03-17T16:29:30.402Z,30.49
2023-03-17T16:32:01.885Z,30.34
2023-03-17T16:34:33.232Z,30.59
2023-03-17T16:37:05.837Z,30.44
2023-03-17T16:39:38.231Z,30.38
2023-03-17T16:42:25.791Z,30.32
2023-03-17T16:44:56.727Z,30.21
2023-03-17T16:47:27.325Z,30.25
2023-03-17T16:49:58.814Z,30.44
2023-03-17T16:52:31.407Z,30.31
2023-03-17T16:55:03.081Z,30.21
2023-03-17T16:57:35.508Z,30.16
2023-03-17T17:00:10.890Z,30.27
2023-03-17T17:02:42.593Z,30.29
2023-03-17T17:05:22.462Z,30.24
2023-03-17T17:07:56.261Z,30.25
2023-03-17T17:10:30.197Z,30.25
2023-03-17T17:13:02.094Z,30.21
2023-03-17T17:15:33.763Z,30.21
2023-03-17T17:18:17.756Z,30.32
2023-03-17T17:20:48.987Z,30.20
2023-03-17T17:23:24.258Z,30.17
2023-03-17T17:25:57.312Z,29.94
2023-03-17T17:28:31.402Z,30.01
2023-03-17T17:31:02.352Z,29.93
2023-03-17T17:33:34.146Z,29.93
2023-03-17T17:36:07.614Z,29.98
2023-03-17T17:38:40.702Z,29.98
2023-03-17T17:41:14.676Z,30.07
2023-03-17T17:43:46.518Z,30.00
2023-03-17T17:46:24.859Z,29.84
2023-03-17T17:48:58.496Z,29.78
2023-03-17T17:51:31.680Z,29.73
2023-03-17T17:54:03.010Z,29.66
2023-03-17T17:56:38.033Z,29.83
2023-03-17T17:59:09.786Z,29.84
2023-03-17T18:01:41.624Z,29.76
2023-03-17T18:04:14.116Z,29.77
2023-03-17T18:06:49.174Z,29.78
2023-03-17T18:09:21.274Z,29.83
2023-03-17T18:11:52.580Z,29.62
2023-03-17T18:14:24.249Z,29.70
2023-03-17T18:16:56.018Z,29.72
2023-03-17T18:19:28.155Z,29.70
2023-03-17T18:21:59.951Z,29.70
2023-03-17T18:24:32.123Z,29.60
2023-03-17T18:27:03.067Z,29.53
2023-03-17T18:29:33.610Z,29.52
2023-03-17T18:32:07.286Z,29.50
2023-03-17T18:34:45.536Z,29.55
2023-03-17T18:37:19.503Z,29.49
2023-03-17T18:40:09.714Z,29.42
2023-03-17T18:42:40.347Z,29.45
2023-03-17T18:45:17.473Z,29.46
2023-03-17T18:47:49.117Z,29.45
2023-03-17T18:50:21.966Z,29.46
2023-03-17T18:52:53.668Z,29.33
2023-03-17T18:55:25.603Z,29.29
2023-03-17T18:57:57.049Z,29.16
2023-03-17T19:00:29.994Z,29.23
2023-03-17T19:03:00.243Z,29.29
2023-03-17T19:05:30.610Z,29.15
2023-03-17T19:08:01.733Z,29.05
2023-03-17T19:10:47.587Z,29.02
2023-03-17T19:13:25.633Z,28.98
2023-03-17T19:16:03.121Z,29.08
2023-03-17T19:18:38.688Z,29.04
2023-03-17T19:21:11.112Z,29.05
2023-03-17T19:23:42.812Z,28.95
2023-03-17T19:26:13.120Z,28.95
2023-03-17T19:44:52.080Z,28.47
2023-03-17T19:47:23.517Z,28.43
2023-03-17T19:49:54.333Z,28.44
2023-03-17T19:52:33.657Z,28.41
2023-03-17T19:55:08.867Z,28.33
2023-03-17T19:57:46.072Z,28.20
2023-03-17T20:00:19.701Z,28.14
2023-03-17T20:03:03.247Z,28.09
2023-03-17T20:08:42.778Z,27.85
2023-03-17T20:11:22.970Z,27.69
2023-03-17T20:16:55.588Z,27.63
2023-03-17T20:19:26.058Z,27.49
2023-03-17T20:21:57.143Z,27.41
2023-03-17T20:24:31.246Z,27.39
2023-03-17T20:27:07.283Z,27.29
2023-03-17T20:29:43.792Z,27.24
2023-03-17T20:32:16.371Z,27.22
2023-03-17T20:34:48.105Z,27.21
2023-03-17T20:37:19.886Z,27.14
2023-03-17T20:39:50.599Z,27.09
2023-03-17T20:42:21.407Z,27.08
2023-03-17T20:44:55.375Z,26.98
2023-03-17T20:47:27.000Z,26.95
2023-03-17T20:50:00.938Z,26.88
2023-03-17T20:52:32.689Z,26.84
2023-03-17T20:55:04.963Z,26.76
2023-03-17T20:57:38.381Z,26.70
2023-03-17T21:00:12.357Z,26.60
2023-03-17T21:02:43.345Z,26.58
2023-03-17T21:05:17.999Z,26.48
2023-03-17T21:07:50.308Z,26.43
2023-03-17T21:10:21.877Z,26.39
2023-03-17T21:12:52.264Z,26.37
2023-03-17T21:15:25.924Z,26.30
2023-03-17T21:17:57.408Z,26.24
2023-03-17T21:20:27.624Z,26.16
2023-03-17T21:22:58.771Z,26.09
2023-03-17T21:25:29.502Z,26.07
2023-03-17T21:27:59.677Z,26.03
2023-03-17T21:30:31.327Z,26.02
2023-03-17T21:33:06.006Z,25.96
2023-03-17T21:35:37.683Z,25.88
2023-03-17T21:38:07.887Z,25.86
2023-03-17T21:40:39.030Z,25.86
2023-03-17T21:43:09.410Z,25.83
2023-03-17T21:45:41.375Z,25.82
2023-03-17T21:48:13.229Z,25.78
2023-03-17T21:50:44.427Z,25.75
2023-03-17T21:53:17.206Z,25.75
2023-03-17T21:55:48.664Z,25.78
2023-03-17T21:58:19.282Z,25.72
2023-03-17T22:00:51.393Z,25.66
2023-03-17T22:03:22.582Z,25.66
2023-03-17T22:05:52.946Z,25.63
2023-03-17T22:08:24.781Z,25.65
2023-03-17T22:10:57.927Z,25.55
2023-03-17T22:13:29.036Z,25.59
2023-03-17T22:16:02.152Z,25.55
2023-03-17T22:18:41.808Z,25.55
2023-03-17T22:21:14.816Z,25.55
2023-03-17T22:23:48.934Z,25.57
2023-03-17T23:02:15.798Z,25.31
2023-03-17T23:04:51.216Z,25.25
2023-03-17T23:07:24.921Z,25.22
2023-03-17T23:09:55.990Z,25.20
2023-03-17T23:12:26.304Z,25.20
2023-03-17T23:14:56.506Z,25.18
2023-03-17T23:17:28.780Z,25.18
2023-03-17T23:19:59.112Z,25.17
2023-03-17T23:22:29.190Z,25.12
2023-03-17T23:25:00.805Z,25.12
2023-03-17T23:27:31.006Z,25.10
2023-03-17T23:30:01.953Z,25.08
2023-03-17T23:32:34.430Z,25.07
2023-03-17T23:35:04.982Z,25.04
2023-03-17T23:37:35.492Z,25.01
2023-03-17T23:40:07.743Z,24.97
2023-03-17T23:42:39.290Z,24.98
2023-03-17T23:45:10.781Z,24.94
2023-03-17T23:47:41.461Z,24.94
2023-03-17T23:50:13.802Z,24.92
2023-03-17T23:52:45.502Z,24.97
2023-03-17T23:55:17.491Z,24.94
2023-03-17T23:57:48.855Z,24.94
